Time;durP1;ratioP1;P1;durP2;ratioP2;P2;SDS_P1;SDS_P2;PMS_P1;PMS_P2;Temp;Humidity;BMP_temperature;BMP_pressure;BME280_temperature;BME280_humidity;BME280_pressure;Samples;Min_cycle;Max_cycle;Signal;HPM_P1;HPM_P2
2022/05/31 15:20:14;;;;;;;;;0.25;0.25;;;;;45.14;15.65;100930.56;5071867;28;45423;-80
2022/05/31 15:22:42;;;;;;;;;0.00;0.00;;;;;43.68;15.68;100923.84;5069809;28;45531;-82
2022/05/31 15:25:17;;;;;;;;;0.25;0.25;;;;;41.14;16.78;100941.56;5071678;28;45503;-83
2022/05/31 15:27:43;;;;;;;;;0.00;0.00;;;;;38.28;17.57;100937.88;5072581;28;45470;-83
2022/05/31 15:30:10;;;;;;;;;0.00;0.00;;;;;37.24;18.28;100928.66;5074519;28;45402;-83
2022/05/31 15:32:37;;;;;;;;;1.25;1.25;;;;;35.24;19.41;100937.22;5080584;27;45433;-83
2022/05/31 15:35:03;;;;;;;;;2.50;1.75;;;;;33.40;20.41;100940.53;5076967;28;45654;-83
2022/05/31 15:37:30;;;;;;;;;2.50;2.50;;;;;33.12;22.20;100957.06;5073765;28;45718;-83
2022/05/31 15:39:59;;;;;;;;;2.00;2.00;;;;;32.71;22.84;100958.94;5072888;28;45228;-81
2022/05/31 15:42:25;;;;;;;;;3.25;2.50;;;;;33.24;23.15;100963.69;5071701;28;45425;-82
2022/05/31 15:44:50;;;;;;;;;2.00;2.00;;;;;35.85;22.43;100957.03;5072477;28;45369;-83
2022/05/31 15:47:16;;;;;;;;;0.00;0.00;;;;;37.77;20.56;100955.75;5072273;28;45373;-83
2022/05/31 15:49:43;;;;;;;;;1.00;1.00;;;;;40.29;19.39;100964.63;5073165;28;45379;-83
2022/05/31 15:52:30;;;;;;;;;2.00;0.25;;;;;42.67;18.32;100965.69;5088978;27;45541;-83
2022/05/31 15:54:59;;;;;;;;;1.75;1.75;;;;;44.50;16.68;100981.56;5072342;28;46634;-83
2022/05/31 15:57:31;;;;;;;;;2.00;2.00;;;;;45.90;16.29;100957.56;5072118;28;45677;-81
2022/05/31 15:59:57;;;;;;;;;1.00;1.00;;;;;47.20;15.38;100957.53;5070871;28;45239;-83
2022/05/31 16:02:22;;;;;;;;;1.00;1.00;;;;;47.97;14.87;100975.56;5072623;28;45152;-85
2022/05/31 16:04:49;;;;;;;;;1.50;1.50;;;;;48.30;14.05;100969.16;5072353;27;46144;-83
2022/05/31 16:07:20;;;;;;;;;1.00;1.00;;;;;49.02;13.15;100976.44;5072151;27;45737;-84
2022/05/31 16:09:50;;;;;;;;;2.00;2.00;;;;;49.66;12.73;100966.13;5072255;28;45277;-83
2022/05/31 16:12:25;;;;;;;;;1.00;1.00;;;;;50.00;13.80;100975.81;5073206;28;45317;-82
2022/05/31 16:14:53;;;;;;;;;3.00;2.00;;;;;50.39;12.58;100980.19;5095884;27;46846;-84
2022/05/31 16:17:19;;;;;;;;;1.00;1.00;;;;;50.54;11.98;100991.25;5081476;27;45668;-84
2022/05/31 16:19:45;;;;;;;;;1.75;1.75;;;;;50.64;12.61;101001.94;5082749;28;45423;-83
2022/05/31 16:22:14;;;;;;;;;4.50;2.50;;;;;50.29;12.77;100986.00;5076386;28;45568;-84
2022/05/31 16:24:42;;;;;;;;;1.50;1.50;;;;;50.43;12.24;100978.75;5068153;28;45636;-83
2022/05/31 16:27:09;;;;;;;;;1.00;1.00;;;;;50.64;12.83;100994.56;5058655;28;45687;-84
2022/05/31 16:29:35;;;;;;;;;0.75;0.75;;;;;51.05;12.97;100979.31;5058489;28;45335;-86
2022/05/31 16:32:01;;;;;;;;;1.50;1.00;;;;;51.54;12.62;100996.19;5058417;28;45257;-83
2022/05/31 16:34:26;;;;;;;;;1.50;1.50;;;;;51.59;12.56;100981.81;5058147;28;45228;-83
2022/05/31 16:36:56;;;;;;;;;1.00;0.75;;;;;51.54;12.51;100979.66;5058047;28;45218;-85
2022/05/31 16:42:15;;;;;;;;;2.00;1.25;;;;;49.99;11.87;100979.59;5058209;28;45410;-83
2022/05/31 16:44:41;;;;;;;;;2.00;2.00;;;;;47.41;12.89;100978.97;5056747;28;46601;-83
2022/05/31 16:47:06;;;;;;;;;2.25;2.25;;;;;45.93;14.54;100978.31;5057944;28;45412;-83
2022/05/31 16:49:32;;;;;;;;;1.50;1.50;;;;;44.30;14.20;100989.78;5057887;28;45308;-79
2022/05/31 16:51:58;;;;;;;;;1.75;1.75;;;;;43.06;15.34;100989.50;5058073;28;45535;-82
2022/05/31 16:54:29;;;;;;;;;1.25;1.25;;;;;42.39;16.06;100984.47;5057188;28;45375;-83
2022/05/31 16:57:06;;;;;;;;;1.00;1.00;;;;;41.45;16.40;100980.63;5073913;28;45379;-84
2022/05/31 16:59:34;;;;;;;;;3.50;2.00;;;;;39.84;16.91;100993.38;5073311;27;45361;-82
2022/05/31 17:02:01;;;;;;;;;1.50;1.50;;;;;37.74;18.28;100985.69;5056720;28;45370;-84
2022/05/31 17:04:27;;;;;;;;;1.25;1.25;;;;;35.75;19.88;100991.72;5057192;28;45443;-81
2022/05/31 17:15:12;;;;;;;;;0.50;0.50;;;;;30.18;24.51;100993.88;5058783;28;45710;-81
2022/05/31 17:17:39;;;;;;;;;2.75;2.75;;;;;29.57;26.61;100992.31;5057676;28;45678;-81
2022/05/31 17:20:22;;;;;;;;;1.50;1.50;;;;;29.06;26.17;100989.38;5060760;27;45417;-79
2022/05/31 17:23:03;;;;;;;;;2.50;2.50;;;;;28.54;27.43;100991.72;5078425;28;45345;-75
2022/05/31 17:25:34;;;;;;;;;1.25;1.25;;;;;28.03;28.13;101001.00;5054810;28;47458;-78
2022/05/31 17:28:03;;;;;;;;;3.00;3.00;;;;;27.57;28.69;100997.69;5059342;28;45380;-79
2022/05/31 17:30:31;;;;;;;;;2.25;2.25;;;;;27.19;29.51;100994.94;5076162;27;45352;-89
2022/05/31 17:33:11;;;;;;;;;2.50;2.50;;;;;26.85;30.35;101007.13;5082270;27;45472;-81
2022/05/31 17:35:38;;;;;;;;;3.75;3.00;;;;;26.45;30.96;101005.22;5076495;27;45753;-79
2022/05/31 17:38:06;;;;;;;;;3.50;3.00;;;;;26.06;30.31;100999.69;5040296;28;45611;-81
2022/05/31 17:40:34;;;;;;;;;4.50;3.25;;;;;25.76;31.31;100993.94;5075922;28;45422;-80
2022/05/31 17:43:00;;;;;;;;;2.50;1.50;;;;;25.54;32.55;101012.81;5075915;28;45556;-81
2022/05/31 17:45:26;;;;;;;;;2.25;1.75;;;;;25.30;32.58;101000.78;5076746;27;46382;-78
2022/05/31 17:47:51;;;;;;;;;2.50;2.50;;;;;25.13;32.51;101008.94;5078750;27;45354;-81
2022/05/31 17:50:18;;;;;;;;;2.00;1.00;;;;;24.86;32.93;101011.03;5076979;27;45462;-84
2022/05/31 17:52:44;;;;;;;;;2.25;2.25;;;;;24.57;33.67;101010.41;5077622;27;45490;-84
2022/05/31 17:55:10;;;;;;;;;1.25;1.25;;;;;24.40;33.11;101015.88;5078478;28;45401;-77
2022/05/31 17:57:36;;;;;;;;;2.50;1.75;;;;;24.18;33.64;101025.78;5080909;28;45586;-76
2022/05/31 18:00:05;;;;;;;;;3.25;3.00;;;;;24.05;34.08;101034.72;5081119;28;45493;-81
2022/05/31 18:02:30;;;;;;;;;3.00;2.00;;;;;23.85;33.74;101029.53;5075464;28;45395;-86
2022/05/31 18:04:56;;;;;;;;;2.00;2.00;;;;;23.66;34.02;101021.72;5077171;27;46576;-81
2022/05/31 18:07:22;;;;;;;;;5.25;5.00;;;;;23.47;33.94;101013.91;5058542;28;45435;-88
2022/05/31 18:09:49;;;;;;;;;1.75;1.75;;;;;23.56;34.17;101038.53;5062179;28;45470;-91
2022/05/31 18:12:15;;;;;;;;;2.50;2.50;;;;;23.31;34.50;101026.31;5059654;28;45556;-84
2022/05/31 18:14:42;;;;;;;;;1.00;1.00;;;;;23.14;34.88;101013.16;5072958;28;46003;-88
2022/05/31 18:17:08;;;;;;;;;2.75;2.75;;;;;23.12;34.69;101035.16;5060326;28;45370;-90
2022/05/31 18:19:35;;;;;;;;;2.00;2.00;;;;;22.98;34.80;101025.53;5058455;28;45446;-82
2022/05/31 18:22:07;;;;;;;;;3.25;2.00;;;;;23.08;34.73;101044.84;5083856;27;45255;-82
2022/05/31 18:24:41;;;;;;;;;1.50;1.50;;;;;22.88;34.63;101027.31;5053004;28;47848;-85
2022/05/31 18:27:11;;;;;;;;;2.00;2.00;;;;;22.98;35.00;101062.50;5074782;28;45522;-84
2022/05/31 18:29:47;;;;;;;;;2.00;2.00;;;;;22.91;35.09;101065.16;5076278;28;45327;-84
2022/05/31 18:32:17;;;;;;;;;2.00;2.00;;;;;22.81;35.10;101065.19;5077287;28;45254;-84
2022/05/31 18:34:44;;;;;;;;;2.25;2.00;;;;;22.68;35.21;101052.88;5077341;28;46534;-91
2022/05/31 18:42:33;;;;;;;;;3.00;2.25;;;;;22.58;35.49;101070.47;5081184;28;45374;-77
2022/05/31 18:45:09;;;;;;;;;3.00;2.00;;;;;22.49;36.07;101057.28;5076548;27;46102;-77
2022/05/31 18:47:36;;;;;;;;;2.25;2.25;;;;;22.56;36.09;101083.69;5076593;28;45354;-77
2022/05/31 18:50:03;;;;;;;;;2.00;2.00;;;;;22.46;35.85;101081.94;5076277;27;45453;-77
2022/05/31 18:52:29;;;;;;;;;2.00;2.00;;;;;22.35;36.22;101081.00;5058018;28;45540;-78
2022/05/31 18:54:57;;;;;;;;;1.00;1.00;;;;;22.31;36.10;101089.78;5075985;27;45495;-78
2022/05/31 18:57:23;;;;;;;;;2.00;2.00;;;;;22.23;36.19;101093.31;5060636;28;45722;-78
2022/05/31 18:59:50;;;;;;;;;4.25;2.75;;;;;22.10;36.54;101080.97;5076994;28;45666;-78
2022/05/31 19:02:22;;;;;;;;;2.25;2.25;;;;;22.07;36.91;101100.31;5076402;27;45470;-78
2022/05/31 19:04:53;;;;;;;;;2.00;2.00;;;;;22.02;36.85;101106.47;5075584;28;45453;-78
2022/05/31 19:07:19;;;;;;;;;2.00;1.25;;;;;21.94;36.69;101096.78;5057667;28;45578;-77
2022/05/31 19:09:48;;;;;;;;;1.00;1.00;;;;;21.83;36.93;101102.91;5076904;27;45529;-78
2022/05/31 19:12:15;;;;;;;;;2.00;2.00;;;;;21.69;36.91;101105.50;5058225;28;45601;-78
2022/05/31 19:14:43;;;;;;;;;1.00;1.00;;;;;21.67;37.18;101107.25;5076017;28;45644;-79
2022/05/31 19:17:12;;;;;;;;;1.75;1.75;;;;;21.60;36.99;101107.22;5058670;28;45444;-81
2022/05/31 19:19:41;;;;;;;;;1.00;1.00;;;;;21.57;37.22;101112.44;5076533;28;45267;-80
2022/05/31 19:22:07;;;;;;;;;1.50;1.50;;;;;21.50;37.70;101101.00;5076536;27;45342;-80
2022/05/31 19:24:33;;;;;;;;;3.00;2.75;;;;;21.49;37.61;101103.63;5075694;28;45953;-80
2022/05/31 19:26:58;;;;;;;;;1.00;1.00;;;;;21.46;37.64;101108.88;5082178;28;45418;-80
2022/05/31 19:29:24;;;;;;;;;1.00;1.00;;;;;21.44;37.74;101115.88;5079581;27;45563;-78
2022/05/31 19:31:55;;;;;;;;;2.75;2.00;;;;;21.37;37.60;101115.00;5079025;28;46883;-79
2022/05/31 19:34:41;;;;;;;;;3.00;3.00;;;;;21.27;37.95;101114.06;5076960;28;45559;-80
2022/05/31 19:37:10;;;;;;;;;2.00;2.00;;;;;21.21;38.44;101126.31;5058772;28;45710;-80
2022/05/31 19:39:37;;;;;;;;;2.00;2.00;;;;;21.15;38.19;101117.53;5076251;28;45343;-78
2022/05/31 19:42:06;;;;;;;;;3.75;3.75;;;;;21.12;39.01;101128.03;5077246;28;45366;-80
2022/05/31 19:44:32;;;;;;;;;2.25;2.25;;;;;;;;5074917;28;46070;-80
2022/05/31 19:46:57;;;;;;;;;2.50;2.50;;;;;21.01;39.13;101138.47;5075146;28;45470;-80
2022/05/31 19:49:23;;;;;;;;;3.00;3.00;;;;;20.98;39.05;101142.84;5075004;28;45482;-79
2022/05/31 19:51:48;;;;;;;;;2.00;2.00;;;;;20.96;39.74;101140.22;5075108;28;45367;-79
2022/05/31 19:54:17;;;;;;;;;2.00;2.00;;;;;20.85;39.74;101132.22;5074674;28;45961;-78
2022/05/31 19:56:43;;;;;;;;;1.50;1.50;;;;;20.93;39.80;101155.09;5075289;28;45717;-78
2022/05/31 19:59:09;;;;;;;;;2.00;2.00;;;;;20.74;39.72;101141.78;5075340;28;45735;-79
2022/05/31 20:01:35;;;;;;;;;2.00;2.00;;;;;20.75;40.52;101164.59;5078641;27;45300;-80
2022/05/31 20:04:00;;;;;;;;;3.00;2.00;;;;;20.63;40.00;101156.56;5078308;28;46558;-79
2022/05/31 20:06:27;;;;;;;;;4.00;2.00;;;;;20.49;40.62;101159.97;5079333;28;45483;-79
2022/05/31 20:11:37;;;;;;;;;3.00;3.00;;;;;20.31;40.33;101168.56;5080976;28;45414;-79
2022/05/31 20:14:04;;;;;;;;;1.25;1.25;;;;;20.30;41.36;101185.19;5083054;28;45558;-79
2022/05/31 20:16:36;;;;;;;;;4.75;1.75;;;;;20.25;40.60;101185.16;5080214;27;45240;-78
2022/05/31 20:19:14;;;;;;;;;3.00;2.00;;;;;20.23;41.04;101192.13;5077411;28;45379;-81
2022/05/31 20:21:42;;;;;;;;;3.00;2.00;;;;;20.14;41.09;101189.41;5076672;28;45342;-78
2022/05/31 20:24:09;;;;;;;;;2.00;2.00;;;;;20.13;41.54;101198.16;5056983;28;45524;-78
2022/05/31 20:26:40;;;;;;;;;1.00;1.00;;;;;20.07;41.38;101201.59;5077634;28;45634;-79
2022/05/31 20:29:08;;;;;;;;;2.00;2.00;;;;;20.00;41.82;101201.50;5077905;28;45434;-79
2022/05/31 20:31:36;;;;;;;;;2.50;2.50;;;;;20.02;41.46;101202.41;5075927;28;45340;-79
2022/05/31 20:34:03;;;;;;;;;2.00;2.00;;;;;19.97;41.55;101212.00;5077895;28;45461;-80
2022/05/31 20:36:28;;;;;;;;;3.00;1.50;;;;;19.93;41.75;101203.16;5077077;28;45269;-78
2022/05/31 20:38:54;;;;;;;;;4.50;2.00;;;;;19.93;42.31;101208.41;5077943;28;45370;-78
2022/05/31 20:41:24;;;;;;;;;1.00;1.00;;;;;19.88;42.32;101211.00;5076216;28;45451;-80
2022/05/31 20:43:51;;;;;;;;;4.00;2.50;;;;;19.79;42.16;101210.84;5076134;28;46408;-79
2022/05/31 20:46:18;;;;;;;;;3.50;2.00;;;;;19.75;42.41;101216.94;5077443;28;45873;-79
2022/05/31 20:48:45;;;;;;;;;5.75;3.00;;;;;19.68;42.74;101210.72;5077655;28;45299;-78
2022/05/31 20:51:11;;;;;;;;;1.00;1.00;;;;;19.70;42.08;101219.50;5078428;28;45393;-77
2022/05/31 20:53:39;;;;;;;;;2.75;2.75;;;;;19.68;42.32;101225.56;5077520;28;46443;-80
2022/05/31 20:56:07;;;;;;;;;3.25;3.00;;;;;19.64;43.36;101222.94;5078231;27;45249;-80
2022/05/31 20:58:32;;;;;;;;;3.75;3.50;;;;;19.56;42.99;101214.03;5082519;28;46594;-79
2022/05/31 21:00:58;;;;;;;;;2.75;2.75;;;;;19.58;43.31;101225.44;5079157;28;45645;-77
2022/05/31 21:03:26;;;;;;;;;1.25;1.25;;;;;19.59;43.61;101223.72;5059760;28;46993;-79
2022/05/31 21:05:52;;;;;;;;;2.00;2.00;;;;;19.44;43.12;101204.25;5077941;27;45357;-78
2022/05/31 21:08:18;;;;;;;;;2.00;2.00;;;;;19.55;43.18;101224.53;5077731;28;45369;-78
2022/05/31 21:10:44;;;;;;;;;3.00;3.00;;;;;19.48;43.08;101223.56;5059664;28;45760;-78
2022/05/31 21:13:12;;;;;;;;;3.25;2.50;;;;;19.45;43.28;101216.53;5077485;28;45937;-78
2022/05/31 21:15:39;;;;;;;;;1.50;1.00;;;;;19.50;43.54;101232.34;5077215;28;45565;-77
2022/05/31 21:18:05;;;;;;;;;1.00;0.75;;;;;19.46;43.29;101231.44;5077442;27;45336;-79
2022/05/31 21:20:31;;;;;;;;;1.50;1.50;;;;;19.36;43.85;101219.03;5067906;28;45306;-78
2022/05/31 21:22:58;;;;;;;;;1.00;1.00;;;;;19.34;43.97;101220.72;5080301;27;45792;-81
2022/05/31 21:25:31;;;;;;;;;3.00;3.00;;;;;19.37;44.08;101226.03;5074910;28;45695;-80
2022/05/31 21:28:01;;;;;;;;;2.00;2.00;;;;;19.31;43.77;101236.44;5066021;28;45401;-81
2022/05/31 21:30:27;;;;;;;;;1.00;1.00;;;;;19.34;43.86;101236.50;5057566;28;45418;-81
2022/05/31 21:32:54;;;;;;;;;3.00;1.25;;;;;19.33;43.88;101239.97;5057306;28;46154;-81
2022/05/31 21:35:19;;;;;;;;;2.25;2.25;;;;;19.32;44.08;101239.09;5079435;27;46105;-80
2022/05/31 21:37:47;;;;;;;;;1.25;1.25;;;;;19.32;44.22;101238.19;5100852;27;45410;-80
2022/05/31 21:43:02;;;;;;;;;1.00;1.00;;;;;19.30;44.50;101238.19;5103885;27;45444;-80
2022/05/31 21:45:30;;;;;;;;;1.00;1.00;;;;;19.28;44.62;101239.91;5082488;27;45825;-80
2022/05/31 21:47:56;;;;;;;;;1.00;1.00;;;;;19.24;45.08;101245.06;5099266;27;45450;-82
2022/05/31 21:50:22;;;;;;;;;1.25;1.25;;;;;19.14;45.04;101234.44;5098561;27;45555;-81
2022/05/31 21:52:48;;;;;;;;;3.00;2.00;;;;;19.18;45.29;101243.25;5098051;27;46168;-81
2022/05/31 21:55:21;;;;;;;;;1.00;1.00;;;;;19.15;45.35;101243.19;5079937;27;45826;-81
2022/05/31 21:57:47;;;;;;;;;2.00;2.00;;;;;19.09;45.51;101241.34;5098251;27;45238;-80
2022/05/31 22:00:18;;;;;;;;;2.25;2.00;;;;;19.06;46.17;101240.41;5080424;27;45438;-81
2022/05/31 22:02:49;;;;;;;;;2.00;2.00;;;;;19.01;45.81;101245.59;5079709;27;47086;-80
2022/05/31 22:05:19;;;;;;;;;2.00;2.00;;;;;19.02;46.63;101244.72;5079799;27;45280;-80
2022/05/31 22:07:45;;;;;;;;;5.50;5.25;;;;;18.93;46.56;101241.91;5079829;27;45402;-79
2022/05/31 22:10:10;;;;;;;;;2.00;2.00;;;;;18.85;46.54;101226.03;5098649;27;45494;-80
2022/05/31 22:12:36;;;;;;;;;2.00;2.00;;;;;18.93;46.66;101241.91;5078906;27;45545;-80
2022/05/31 22:15:05;;;;;;;;;3.00;1.75;;;;;18.91;47.45;101241.88;5097675;27;45262;-82
2022/05/31 22:17:31;;;;;;;;;1.00;1.00;;;;;18.86;47.14;101246.16;5079165;27;45415;-82
2022/05/31 22:19:56;;;;;;;;;1.25;1.25;;;;;18.82;47.56;101241.72;5098522;27;45495;-81
2022/05/31 22:22:24;;;;;;;;;3.25;3.25;;;;;18.78;47.71;101245.16;5098625;27;45923;-80
2022/05/31 22:27:35;;;;;;;;;1.50;1.50;;;;;18.75;47.79;101253.84;5100915;27;45393;-81
2022/05/31 22:30:01;;;;;;;;;2.00;2.00;;;;;18.74;48.40;101253.81;5099186;27;45343;-82
2022/05/31 22:32:26;;;;;;;;;3.00;1.25;;;;;18.68;48.31;101249.34;5098427;27;45344;-82
2022/05/31 22:34:52;;;;;;;;;3.00;3.00;;;;;18.69;48.51;101251.09;5098323;27;45347;-84
2022/05/31 22:37:19;;;;;;;;;7.25;6.25;;;;;18.67;48.53;101269.44;5098085;27;45422;-84
2022/05/31 22:39:54;;;;;;;;;4.00;2.75;;;;;18.64;48.62;101258.91;5098184;27;45344;-85
2022/05/31 22:42:21;;;;;;;;;3.75;3.00;;;;;18.54;48.97;101247.34;5097636;27;45348;-85
2022/05/31 22:44:47;;;;;;;;;4.25;4.00;;;;;18.59;48.71;101260.53;5097492;27;45399;-85
2022/05/31 22:47:13;;;;;;;;;3.00;1.50;;;;;18.47;49.40;101245.47;5097862;27;45436;-85
2022/05/31 22:49:38;;;;;;;;;2.00;2.00;;;;;18.58;49.19;101263.13;5097894;27;45563;-84
2022/05/31 22:52:04;;;;;;;;;1.00;1.00;;;;;18.56;49.53;101264.00;5097282;27;46250;-83
2022/05/31 22:54:31;;;;;;;;;2.00;2.00;;;;;18.54;49.68;101270.06;5097274;27;45432;-85
2022/05/31 22:56:57;;;;;;;;;2.00;2.00;;;;;18.48;49.75;101262.97;5079400;27;45420;-84
2022/05/31 22:59:25;;;;;;;;;5.25;2.00;;;;;18.44;49.91;101263.75;5097711;27;45457;-85
2022/05/31 23:01:52;;;;;;;;;2.00;1.50;;;;;18.43;50.30;101267.22;5079870;27;47132;-85
2022/05/31 23:04:19;;;;;;;;;3.00;3.00;;;;;18.40;50.28;101261.94;5102374;27;45372;-85
2022/05/31 23:06:45;;;;;;;;;2.75;2.00;;;;;18.25;50.43;101252.91;5105800;27;45398;-84
2022/05/31 23:09:11;;;;;;;;;4.00;3.00;;;;;18.26;50.84;101251.16;5102654;27;45424;-84
2022/05/31 23:11:37;;;;;;;;;2.75;2.75;;;;;18.30;50.76;101260.84;5099527;27;45604;-84
2022/05/31 23:14:04;;;;;;;;;1.25;1.25;;;;;18.28;51.22;101264.31;5097050;27;45732;-84
2022/05/31 23:16:31;;;;;;;;;1.25;1.25;;;;;18.21;51.37;101265.91;5097302;27;45480;-85
2022/05/31 23:19:00;;;;;;;;;3.00;2.25;;;;;18.13;51.55;101259.63;5097480;27;45504;-84
2022/05/31 23:21:30;;;;;;;;;2.75;2.75;;;;;18.05;51.87;101257.72;5096493;27;46004;-84
2022/05/31 23:23:59;;;;;;;;;6.50;5.50;;;;;17.91;51.77;101236.44;5097147;27;45507;-83
2022/05/31 23:26:42;;;;;;;;;16.25;14.00;;;;;18.08;51.78;101275.28;5096801;27;45343;-84
2022/05/31 23:29:14;;;;;;;;;22.00;18.75;;;;;18.06;52.25;101276.97;5097417;27;45366;-85
2022/05/31 23:31:43;;;;;;;;;16.00;14.50;;;;;17.98;52.69;101261.06;5097187;27;45385;-84
2022/05/31 23:34:14;;;;;;;;;20.00;16.50;;;;;18.01;52.59;101274.25;5096980;27;45397;-84
2022/05/31 23:36:40;;;;;;;;;23.25;21.75;;;;;17.99;52.76;101269.81;5101282;27;45319;-84
2022/05/31 23:39:06;;;;;;;;;32.00;26.50;;;;;17.93;52.95;101276.66;5100877;27;45560;-83
2022/05/31 23:41:32;;;;;;;;;32.00;29.25;;;;;17.93;53.27;101271.44;5103198;27;45317;-82
2022/05/31 23:43:57;;;;;;;;;35.25;32.50;;;;;17.89;53.35;101263.47;5116763;27;45396;-79
2022/05/31 23:46:23;;;;;;;;;33.50;31.25;;;;;17.87;53.55;101263.41;5116826;27;45334;-80
2022/05/31 23:48:49;;;;;;;;;34.00;31.75;;;;;17.83;53.75;101265.94;5113036;27;45292;-82
2022/05/31 23:51:16;;;;;;;;;25.75;22.25;;;;;17.83;54.05;101273.78;5105548;27;45346;-84
2022/05/31 23:53:44;;;;;;;;;20.50;16.50;;;;;17.77;54.08;101262.34;5102265;27;45444;-85
2022/05/31 23:56:11;;;;;;;;;17.75;14.25;;;;;17.78;53.70;101257.97;5100565;27;45269;-80
2022/05/31 23:58:37;;;;;;;;;8.25;7.00;;;;;17.74;54.30;101253.53;5100052;27;45602;-82
